CST,Max TemperatureF,Mean TemperatureF,Min TemperatureF,Max Dew PointF,MeanDew PointF,Min DewpointF,Max Humidity, Mean Humidity, Min Humidity, Max Sea Level PressureIn, Mean Sea Level PressureIn, Min Sea Level PressureIn, Max VisibilityMiles, Mean VisibilityMiles, Min VisibilityMiles, Max Wind SpeedMPH, Mean Wind SpeedMPH, Max Gust SpeedMPH,PrecipitationIn, CloudCover, Events, WindDirDegrees
2012-12-1,50,43,36,46,41,32,93,82,70,30.10,29.85,29.72,4,2,0,21,13,26,0.01,7,Fog,195
2012-12-2,46,38,30,43,35,28,100,88,76,30.05,29.94,29.85,4,2,0,24,9,32,0.00,3,Fog-Rain,181
2012-12-3,62,50,37,55,46,28,93,76,59,29.97,29.74,29.59,10,4,0,30,17,37,0.08,6,Fog-Rain,194
2012-12-4,41,30,19,26,19,10,72,57,41,30.43,30.21,29.98,10,10,10,22,12,25,0.00,0,,301
2012-12-5,39,28,17,24,15,9,67,53,38,30.45,30.26,30.00,10,10,10,29,14,37,0.00,2,,137
2012-12-6,45,39,33,37,31,25,82,68,54,30.00,29.92,29.85,10,9,2,26,14,36,0.22,5,Rain,239
2012-12-7,34,29,24,25,22,19,81,71,61,30.04,30.02,29.97,10,9,5,17,9,21,T,5,Snow,13
2012-12-8,37,32,27,24,23,21,85,71,56,30.09,30.05,30.01,10,8,5,17,7,21,0.00,5,,96
2012-12-9,33,31,29,30,28,24,92,81,69,30.02,29.86,29.75,10,2,0,20,12,25,0.35,8,Fog-Rain-Snow,94
2012-12-10,29,15,0,24,7,-3,87,80,73,29.99,29.92,29.84,10,8,3,26,12,33,T,7,Snow,285
2012-12-11,25,14,2,19,15,0,88,78,67,30.07,29.93,29.79,10,7,2,17,8,21,T,7,Snow,238
2012-12-12,41,30,19,25,20,15,84,67,50,30.06,30.00,29.94,10,9,6,28,18,35,0.00,2,,177
2012-12-13,37,28,19,23,19,16,84,68,51,30.15,30.05,29.98,10,9,6,22,10,28,0.00,0,,230
2012-12-14,40,29,18,30,23,14,84,72,59,30.16,30.02,29.83,10,8,5,21,10,24,0.00,2,,129
2012-12-15,41,39,37,38,36,30,92,81,70,29.81,29.58,29.48,10,3,0,20,11,25,0.37,8,Fog-Rain,148
2012-12-16,37,29,20,32,25,17,92,87,81,29.84,29.68,29.54,6,2,0,18,12,21,0.04,8,Fog-Rain-Snow,297
2012-12-17,26,23,20,22,19,16,91,84,77,29.83,29.76,29.68,7,4,1,14,4,17,0.01,8,Snow,41
2012-12-18,30,28,25,25,24,21,88,83,78,29.88,29.72,29.60,5,3,1,13,7,15,T,8,Snow,98
2012-12-19,33,31,29,29,27,25,92,85,78,30.04,29.95,29.84,8,4,0,15,7,18,0.13,8,Fog-Snow,223
2012-12-20,30,23,15,27,20,10,85,79,73,30.01,29.79,29.68,7,2,0,37,24,47,0.35,8,Fog-Snow,345
2012-12-21,17,11,5,8,4,0,80,74,67,30.31,30.22,29.97,10,10,8,28,13,33,0.00,1,,298
2012-12-22,28,16,4,14,8,-1,80,67,53,30.25,30.10,30.01,10,10,6,20,9,24,0.00,0,Snow,204
2012-12-23,20,17,13,13,10,8,88,78,67,30.15,30.07,29.99,10,7,1,18,9,24,0.00,3,Snow,19
2012-12-24,19,13,6,12,8,-2,80,71,61,30.29,30.08,29.93,10,10,4,21,10,23,T,5,Snow,359
2012-12-25,13,7,1,3,-2,-5,79,70,61,30.50,30.44,30.31,10,10,10,16,10,18,0.00,0,,338
2012-12-26,19,11,2,7,2,-3,83,70,56,30.42,30.33,30.23,10,10,9,12,8,,0.00,1,,356
2012-12-27,22,14,5,16,11,0,84,76,67,30.30,30.20,30.10,10,6,2,12,5,14,0.06,6,Snow,76
2012-12-28,24,22,19,18,16,15,84,79,74,30.15,30.02,29.94,9,4,1,12,7,13,0.17,8,Snow,42
2012-12-29,19,11,2,14,9,-2,88,81,73,30.25,30.08,29.96,9,6,1,18,11,21,T,6,Rain-Snow,295
2012-12-30,26,12,-2,17,4,-6,87,78,68,30.28,30.14,29.97,10,6,1,20,11,23,0.00,3,,198
2012-12-31,18,8,-3,11,3,-7,84,73,61,30.31,30.16,30.02,10,8,2,20,13,24,T,3,Snow,316